Time;durP1;ratioP1;P1;durP2;ratioP2;P2;SDS_P1;SDS_P2;PMS_P1;PMS_P2;Temp;Humidity;BMP_temperature;BMP_pressure;BME280_temperature;BME280_humidity;BME280_pressure;Samples;Min_cycle;Max_cycle;Signal;HPM_P1;HPM_P2
2022/04/15 00:01:05;;;;;;;14.75;9.77;;;8.70;99.90;;;;;;5011341;28;20462;-74
2022/04/15 00:03:31;;;;;;;13.02;9.27;;;8.70;99.90;;;;;;5029913;28;20041;-74
2022/04/15 00:05:57;;;;;;;16.73;9.85;;;8.70;99.90;;;;;;5012716;28;20041;-74
2022/04/15 00:08:22;;;;;;;17.83;10.23;;;8.60;99.90;;;;;;5026497;28;20526;-74
2022/04/15 00:10:48;;;;;;;13.93;9.32;;;8.60;99.90;;;;;;5026559;28;20037;-74
2022/04/15 00:13:19;;;;;;;13.95;10.07;;;8.60;99.90;;;;;;5007273;28;20041;-74
2022/04/15 00:15:45;;;;;;;15.95;9.98;;;8.60;99.90;;;;;;5008200;28;20077;-74
2022/04/15 00:18:10;;;;;;;15.85;9.85;;;8.50;99.90;;;;;;5009995;28;20076;-74
2022/04/15 00:20:36;;;;;;;14.15;10.00;;;8.50;99.90;;;;;;5028583;28;20044;-74
2022/04/15 00:23:04;;;;;;;15.23;9.45;;;8.50;99.90;;;;;;5015083;28;20037;-75
2022/04/15 00:25:30;;;;;;;14.90;9.90;;;8.50;99.90;;;;;;5029505;28;20038;-74
2022/04/15 00:27:55;;;;;;;14.77;9.98;;;8.50;99.90;;;;;;5006277;28;20730;-74
2022/04/15 00:30:21;;;;;;;13.20;10.05;;;8.50;99.90;;;;;;5030062;28;20040;-74
2022/04/15 00:32:47;;;;;;;19.00;9.80;;;8.40;99.90;;;;;;5008770;28;20438;-74
2022/04/15 00:35:12;;;;;;;16.33;10.25;;;8.40;99.90;;;;;;5012199;28;20049;-74
2022/04/15 00:37:38;;;;;;;13.32;10.82;;;8.40;99.90;;;;;;5029179;28;20033;-74
2022/04/15 00:40:07;;;;;;;17.20;11.68;;;8.30;99.90;;;;;;5027681;28;20124;-74
2022/04/15 00:42:32;;;;;;;16.45;11.07;;;8.30;99.90;;;;;;5028111;28;20103;-74
2022/04/15 00:45:00;;;;;;;15.10;11.20;;;8.20;99.90;;;;;;5010441;28;20057;-74
2022/04/15 00:47:28;;;;;;;;;;;8.20;99.90;;;;;;5027404;28;20045;-75
2022/04/15 00:49:54;;;;;;;14.73;11.30;;;8.10;99.90;;;;;;5004394;28;19929;-75
2022/04/15 00:52:21;;;;;;;13.77;11.32;;;8.00;99.90;;;;;;5007983;28;20038;-75
2022/04/15 00:54:51;;;;;;;15.60;12.07;;;8.00;99.90;;;;;;5005528;28;20046;-75
2022/04/15 00:57:22;;;;;;;15.20;12.00;;;8.10;99.90;;;;;;5005843;28;20054;-75
2022/04/15 00:59:51;;;;;;;14.82;11.77;;;8.00;99.90;;;;;;5008173;28;20108;-75
2022/04/15 01:02:18;;;;;;;15.18;11.65;;;8.00;99.90;;;;;;5006253;28;20061;-75
2022/04/15 01:04:44;;;;;;;13.20;10.50;;;7.90;99.90;;;;;;5003728;28;20060;-75
2022/04/15 01:07:14;;;;;;;13.07;10.52;;;7.90;99.90;;;;;;5004529;28;20057;-75
2022/04/15 01:09:43;;;;;;;15.13;11.13;;;7.80;99.90;;;;;;5007967;28;20057;-76
2022/04/15 01:12:10;;;;;;;15.73;11.75;;;7.80;99.90;;;;;;5008230;28;20456;-75
2022/04/15 01:14:37;;;;;;;16.00;11.80;;;7.80;99.90;;;;;;5008446;28;20048;-75
2022/04/15 01:17:02;;;;;;;15.50;11.60;;;7.80;99.90;;;;;;5008006;28;20128;-75
2022/04/15 01:19:28;;;;;;;15.50;12.25;;;7.70;99.90;;;;;;5004824;28;20173;-75
2022/04/15 01:21:56;;;;;;;17.35;11.73;;;7.70;99.90;;;;;;5006411;28;20068;-75
2022/04/15 01:24:23;;;;;;;16.10;11.88;;;7.70;99.90;;;;;;5006535;28;20172;-75
2022/04/15 01:26:52;;;;;;;17.30;12.40;;;7.70;99.90;;;;;;5005098;28;20085;-75
2022/04/15 01:29:20;;;;;;;16.42;11.63;;;7.80;99.90;;;;;;5003955;28;20050;-75
2022/04/15 01:31:46;;;;;;;19.23;12.10;;;7.80;99.90;;;;;;5007064;28;20165;-75
2022/04/15 01:34:11;;;;;;;15.35;12.02;;;7.80;99.90;;;;;;5004345;28;20661;-75
2022/04/15 01:36:37;;;;;;;19.10;12.35;;;7.80;99.90;;;;;;5006790;28;20045;-75
2022/04/15 01:39:02;;;;;;;17.75;11.70;;;7.80;99.90;;;;;;5004397;28;20059;-75
2022/04/15 01:41:28;;;;;;;18.10;12.15;;;7.90;99.90;;;;;;5006298;28;20053;-75
2022/04/15 01:43:53;;;;;;;18.77;12.20;;;7.90;99.90;;;;;;5003541;28;20125;-75
2022/04/15 01:46:19;;;;;;;13.98;12.00;;;8.00;99.90;;;;;;5005220;28;20045;-75
2022/04/15 01:48:45;;;;;;;14.80;11.93;;;8.00;99.90;;;;;;5015569;28;20080;-75
2022/04/15 01:51:10;;;;;;;19.35;12.45;;;8.00;99.90;;;;;;5007099;28;20048;-75
2022/04/15 01:53:36;;;;;;;16.52;12.48;;;8.00;99.90;;;;;;5024526;28;20041;-75
2022/04/15 01:56:02;;;;;;;16.52;12.02;;;8.10;99.90;;;;;;5023115;28;20042;-75
2022/04/15 01:58:27;;;;;;;16.52;13.05;;;8.10;99.90;;;;;;5025819;28;20443;-75
2022/04/15 02:00:53;;;;;;;17.95;13.82;;;8.10;99.90;;;;;;5027263;28;20040;-75
2022/04/15 02:03:18;;;;;;;17.65;13.40;;;8.10;99.90;;;;;;5026663;28;20120;-75
2022/04/15 02:05:44;;;;;;;14.77;12.85;;;8.10;99.90;;;;;;5024956;28;20120;-76
2022/04/15 02:08:10;;;;;;;14.93;13.30;;;8.20;99.90;;;;;;5007167;28;20053;-75
2022/04/15 02:10:35;;;;;;;18.77;13.98;;;8.20;99.90;;;;;;5027756;28;20477;-76
2022/04/15 02:13:01;;;;;;;20.55;14.25;;;8.10;99.90;;;;;;5024346;28;20033;-76
2022/04/15 02:15:26;;;;;;;17.13;13.00;;;8.20;99.90;;;;;;5029255;28;20042;-76
2022/04/15 02:17:54;;;;;;;17.40;13.68;;;8.20;99.90;;;;;;5023237;28;20634;-76
2022/04/15 02:20:19;;;;;;;19.67;13.75;;;8.20;99.90;;;;;;5026601;28;20029;-76
2022/04/15 02:22:45;;;;;;;14.68;13.10;;;8.20;99.90;;;;;;5023089;28;20041;-76
2022/04/15 02:25:10;;;;;;;17.05;14.18;;;8.20;99.90;;;;;;5025328;28;20046;-77
2022/04/15 02:27:36;;;;;;;18.63;13.82;;;8.20;99.90;;;;;;5026190;28;20570;-75
2022/04/15 02:30:02;;;;;;;16.27;13.65;;;8.20;99.90;;;;;;5006860;28;20253;-75
2022/04/15 02:32:29;;;;;;;20.90;13.50;;;8.20;99.90;;;;;;5003124;28;20060;-75
2022/04/15 02:34:55;;;;;;;18.10;13.85;;;8.20;99.90;;;;;;5027185;28;20049;-75
2022/04/15 02:37:21;;;;;;;17.95;12.90;;;8.10;99.90;;;;;;5007348;28;20053;-75
2022/04/15 02:39:48;;;;;;;18.70;13.02;;;8.20;99.90;;;;;;5030587;28;20174;-75
2022/04/15 02:42:14;;;;;;;19.92;13.15;;;8.20;99.90;;;;;;5032511;28;20053;-75
2022/04/15 02:44:40;;;;;;;18.27;13.43;;;8.20;99.90;;;;;;5030741;28;20127;-75
2022/04/15 02:47:07;;;;;;;16.98;12.50;;;8.20;99.90;;;;;;5027580;28;20041;-75
2022/04/15 02:49:33;;;;;;;18.02;12.77;;;8.20;99.90;;;;;;5024131;28;21971;-76
2022/04/15 02:52:00;;;;;;;18.45;12.82;;;8.20;99.90;;;;;;5012456;28;20073;-75
2022/04/15 02:54:25;;;;;;;17.65;12.85;;;8.20;99.90;;;;;;5028128;28;20072;-75
2022/04/15 02:56:51;;;;;;;15.20;12.82;;;8.30;99.90;;;;;;5037851;28;20057;-75
2022/04/15 02:59:17;;;;;;;17.88;12.32;;;8.30;99.90;;;;;;5028719;28;20048;-76
2022/04/15 03:01:44;;;;;;;17.60;11.85;;;8.30;99.90;;;;;;5025275;28;20396;-76
2022/04/15 03:04:10;;;;;;;16.63;12.15;;;8.30;99.90;;;;;;5028894;28;20040;-76
2022/04/15 03:06:35;;;;;;;17.38;12.90;;;8.30;99.90;;;;;;5026441;28;20037;-76
2022/04/15 03:09:01;;;;;;;13.43;11.77;;;8.30;99.90;;;;;;5027162;28;20034;-76
2022/04/15 03:11:27;;;;;;;18.70;12.50;;;8.30;99.90;;;;;;5028303;28;20113;-76
2022/04/15 03:13:52;;;;;;;16.25;11.82;;;8.30;99.90;;;;;;5011426;28;20100;-76
2022/04/15 03:16:18;;;;;;;16.38;12.52;;;8.30;99.90;;;;;;5031208;28;20159;-76
2022/04/15 03:18:43;;;;;;;18.85;13.10;;;8.30;99.90;;;;;;5030757;28;20060;-76
2022/04/15 03:21:09;;;;;;;17.50;13.55;;;8.30;99.90;;;;;;5009248;28;20370;-75
2022/04/15 03:23:35;;;;;;;15.32;12.98;;;8.30;99.90;;;;;;5008938;28;20044;-75
2022/04/15 03:26:00;;;;;;;21.13;13.45;;;8.30;99.90;;;;;;5030961;28;20037;-76
2022/04/15 03:28:27;;;;;;;17.55;12.90;;;8.30;99.90;;;;;;5006040;28;20038;-75
2022/04/15 03:30:52;;;;;;;16.95;13.02;;;8.30;99.90;;;;;;5010078;28;20077;-76
2022/04/15 03:33:18;;;;;;;16.23;12.57;;;8.20;99.90;;;;;;5029664;28;20123;-75
2022/04/15 03:35:44;;;;;;;17.52;12.50;;;8.20;99.90;;;;;;5012114;28;20384;-75
2022/04/15 03:38:09;;;;;;;15.85;12.40;;;8.30;99.90;;;;;;5006150;28;20042;-75
2022/04/15 03:40:35;;;;;;;18.90;13.18;;;8.20;99.90;;;;;;5030949;28;20429;-75
2022/04/15 03:43:01;;;;;;;17.08;13.10;;;8.20;99.90;;;;;;5026462;28;20803;-75
2022/04/15 03:45:27;;;;;;;16.65;12.90;;;8.20;99.90;;;;;;5029753;28;20128;-76
2022/04/15 03:47:54;;;;;;;15.15;11.70;;;8.30;99.90;;;;;;5025870;28;20046;-76
2022/04/15 03:50:20;;;;;;;16.13;12.40;;;8.20;99.90;;;;;;5024365;28;20049;-76
2022/04/15 03:52:47;;;;;;;15.13;12.18;;;8.30;99.90;;;;;;5025313;28;20563;-75
2022/04/15 03:55:18;;;;;;;18.17;12.23;;;8.30;99.90;;;;;;5029646;28;20085;-76
2022/04/15 03:57:47;;;;;;;16.00;12.27;;;8.30;99.90;;;;;;5009215;28;20392;-76
2022/04/15 04:00:15;;;;;;;15.98;11.90;;;8.30;99.90;;;;;;5012310;28;20057;-76
2022/04/15 04:02:49;;;;;;;14.88;11.50;;;8.30;99.90;;;;;;5027646;28;20049;-76
2022/04/15 04:05:15;;;;;;;13.95;11.48;;;8.30;99.90;;;;;;5005411;28;20045;-76
2022/04/15 04:07:42;;;;;;;15.30;11.68;;;8.30;99.90;;;;;;5031972;28;20060;-76
2022/04/15 04:10:08;;;;;;;16.23;12.63;;;8.30;99.90;;;;;;5029937;28;20084;-76
2022/04/15 04:12:34;;;;;;;15.75;12.27;;;8.30;99.90;;;;;;5011698;28;20527;-75
2022/04/15 04:15:05;;;;;;;15.48;12.10;;;8.30;99.90;;;;;;5030915;28;20456;-75
2022/04/15 04:17:31;;;;;;;16.45;11.93;;;8.30;99.90;;;;;;5026444;28;20099;-75
2022/04/15 04:19:56;;;;;;;14.23;11.70;;;8.30;99.90;;;;;;5028367;28;20550;-76
2022/04/15 04:22:28;;;;;;;16.58;11.75;;;8.40;99.90;;;;;;5009563;28;20702;-75
2022/04/15 04:24:53;;;;;;;17.10;12.93;;;8.40;99.90;;;;;;5007258;28;20052;-75
2022/04/15 04:27:19;;;;;;;18.42;12.45;;;8.40;99.90;;;;;;5006563;28;20041;-75
2022/04/15 04:29:44;;;;;;;15.13;12.02;;;8.40;99.90;;;;;;5029416;28;20378;-75
2022/04/15 04:32:10;;;;;;;16.33;11.50;;;8.30;99.90;;;;;;5026706;28;20045;-78
2022/04/15 04:34:36;;;;;;;15.00;11.50;;;8.30;99.90;;;;;;5009666;28;20045;-78
2022/04/15 04:37:01;;;;;;;17.23;11.95;;;8.30;99.90;;;;;;5026443;28;20124;-77
2022/04/15 04:39:29;;;;;;;17.83;11.60;;;8.40;99.90;;;;;;5010251;28;20488;-77
2022/04/15 04:41:55;;;;;;;15.75;11.50;;;8.40;99.90;;;;;;5010139;28;20077;-77
2022/04/15 04:44:21;;;;;;;15.52;11.55;;;8.40;99.90;;;;;;5009363;28;20080;-77
2022/04/15 04:46:48;;;;;;;33.13;13.48;;;8.40;99.90;;;;;;5019933;28;20273;-77
2022/04/15 04:49:13;;;;;;;16.83;11.80;;;8.40;99.90;;;;;;5005422;28;20058;-76
2022/04/15 04:51:39;;;;;;;15.98;11.45;;;8.40;99.90;;;;;;5009342;28;20057;-77
2022/04/15 04:54:08;;;;;;;14.85;12.25;;;8.40;99.90;;;;;;5005722;28;20396;-77
2022/04/15 04:56:33;;;;;;;13.88;11.25;;;8.40;99.90;;;;;;5006404;28;20551;-76
2022/04/15 04:58:59;;;;;;;17.00;12.68;;;8.40;99.90;;;;;;5002063;28;20049;-75
2022/04/15 05:01:25;;;;;;;15.15;12.60;;;8.40;99.90;;;;;;5009196;28;20541;-75
2022/04/15 05:03:50;;;;;;;19.48;13.60;;;8.40;99.90;;;;;;5005753;28;20058;-75
2022/04/15 05:06:16;;;;;;;18.63;13.57;;;8.40;99.90;;;;;;5009064;28;20046;-75
2022/04/15 05:08:41;;;;;;;18.10;12.73;;;8.40;99.90;;;;;;5003925;28;20141;-75
2022/04/15 05:11:07;;;;;;;17.77;12.35;;;8.40;99.90;;;;;;5000545;28;20482;-76
2022/04/15 05:13:33;;;;;;;15.23;11.88;;;8.40;99.90;;;;;;5006918;28;20084;-75
2022/04/15 05:15:58;;;;;;;15.68;11.77;;;8.50;99.90;;;;;;5008562;28;20489;-75
2022/04/15 05:18:24;;;;;;;15.95;12.18;;;8.50;99.90;;;;;;5004984;28;20038;-75
2022/04/15 05:20:49;;;;;;;15.93;12.18;;;8.50;99.90;;;;;;5008013;28;20041;-75
2022/04/15 05:23:15;;;;;;;16.85;12.38;;;8.50;99.90;;;;;;5006430;28;20520;-76
2022/04/15 05:25:41;;;;;;;21.17;12.30;;;8.50;99.90;;;;;;5006524;28;20042;-76
2022/04/15 05:28:09;;;;;;;16.80;12.73;;;8.50;99.90;;;;;;5004711;28;20045;-75
2022/04/15 05:30:35;;;;;;;16.05;12.93;;;8.50;99.90;;;;;;5003312;28;20129;-75
2022/04/15 05:33:01;;;;;;;19.08;13.18;;;8.50;99.90;;;;;;5007729;28;20124;-75
2022/04/15 05:35:26;;;;;;;18.30;13.23;;;8.50;99.90;;;;;;5004438;28;20445;-75
2022/04/15 05:37:52;;;;;;;16.77;12.98;;;8.50;99.90;;;;;;5005743;28;20502;-76
2022/04/15 05:40:18;;;;;;;17.50;13.45;;;8.50;99.90;;;;;;5003515;28;20042;-75
2022/04/15 05:42:43;;;;;;;15.95;13.75;;;8.50;99.90;;;;;;5006050;28;20133;-75
2022/04/15 05:45:09;;;;;;;15.40;13.02;;;8.50;99.90;;;;;;5002571;28;20046;-74
2022/04/15 05:47:36;;;;;;;16.08;13.85;;;8.50;99.90;;;;;;5007061;28;20461;-80
2022/04/15 05:50:01;;;;;;;14.07;12.50;;;8.50;99.90;;;;;;5019667;28;20390;-78
2022/04/15 05:52:27;;;;;;;14.43;12.48;;;8.50;99.90;;;;;;5019999;28;20052;-77
2022/04/15 05:54:53;;;;;;;13.68;12.25;;;8.50;99.90;;;;;;5025979;28;20049;-77
2022/04/15 05:57:19;;;;;;;13.88;12.40;;;8.50;99.90;;;;;;5025987;28;20481;-76
2022/04/15 05:59:45;;;;;;;13.43;12.02;;;8.50;99.90;;;;;;5024234;28;20052;-75
2022/04/15 06:02:11;;;;;;;13.27;11.82;;;8.50;99.90;;;;;;5026255;28;20524;-74
2022/04/15 06:04:36;;;;;;;13.27;11.25;;;8.50;99.90;;;;;;5010275;28;20107;-75
2022/04/15 06:07:02;;;;;;;12.68;11.07;;;8.40;99.90;;;;;;5026052;28;20798;-75
2022/04/15 06:09:28;;;;;;;13.55;11.50;;;8.50;99.90;;;;;;5026048;28;20148;-75
2022/04/15 06:11:55;;;;;;;12.00;10.70;;;8.40;99.90;;;;;;5005524;28;20132;-75
2022/04/15 06:14:22;;;;;;;12.65;11.30;;;8.40;99.90;;;;;;5025295;28;20045;-75
2022/04/15 06:16:49;;;;;;;12.75;11.38;;;8.40;99.90;;;;;;5029190;28;20365;-75
2022/04/15 06:19:15;;;;;;;12.05;10.77;;;8.40;99.90;;;;;;5006851;28;20061;-75
2022/04/15 06:21:41;;;;;;;10.50;9.40;;;8.50;99.90;;;;;;5006316;28;20048;-75
2022/04/15 06:24:10;;;;;;;10.57;8.68;;;8.40;99.90;;;;;;5025304;28;20041;-75
2022/04/15 06:26:35;;;;;;;8.82;7.90;;;8.40;99.90;;;;;;5028619;28;20049;-75
2022/04/15 06:29:01;;;;;;;9.10;7.63;;;8.40;99.90;;;;;;5020933;28;20056;-75
2022/04/15 06:31:27;;;;;;;9.10;7.82;;;8.40;99.90;;;;;;5010024;28;20113;-75
2022/04/15 06:33:53;;;;;;;10.25;8.57;;;8.40;99.90;;;;;;5011093;28;20099;-75
2022/04/15 06:36:19;;;;;;;9.60;8.40;;;8.40;99.90;;;;;;5026200;28;20103;-75
2022/04/15 06:38:45;;;;;;;9.50;8.50;;;8.40;99.90;;;;;;5008270;28;20052;-75
2022/04/15 06:41:11;;;;;;;10.50;8.93;;;8.30;99.90;;;;;;5026070;28;20400;-75
2022/04/15 06:43:37;;;;;;;9.68;8.65;;;8.30;99.90;;;;;;5025749;28;20044;-75
2022/04/15 06:46:03;;;;;;;10.32;8.75;;;8.30;99.90;;;;;;5002521;28;20596;-75
2022/04/15 06:48:29;;;;;;;10.13;9.02;;;8.30;99.90;;;;;;5004318;28;20115;-75
2022/04/15 06:50:55;;;;;;;16.25;9.90;;;8.20;99.90;;;;;;5006128;28;20050;-75
2022/04/15 06:53:24;;;;;;;10.55;9.52;;;8.30;99.90;;;;;;5005410;28;20504;-75
2022/04/15 06:55:50;;;;;;;11.68;10.05;;;8.30;99.90;;;;;;5008158;28;20121;-75
2022/04/15 06:58:19;;;;;;;11.93;10.75;;;8.30;99.90;;;;;;5003375;28;20105;-75
2022/04/15 07:00:46;;;;;;;11.98;10.25;;;8.20;99.90;;;;;;5003542;28;20034;-75
2022/04/15 07:03:12;;;;;;;14.07;12.25;;;8.20;99.90;;;;;;5006222;28;20037;-75
2022/04/15 07:05:42;;;;;;;12.95;11.57;;;8.20;99.90;;;;;;5005550;28;20539;-75
2022/04/15 07:08:09;;;;;;;12.93;11.57;;;8.30;99.90;;;;;;5003811;28;20030;-76
2022/04/15 07:10:38;;;;;;;12.73;11.43;;;8.20;99.90;;;;;;5005216;28;20053;-75
2022/04/15 07:13:04;;;;;;;12.80;11.50;;;8.20;99.90;;;;;;5003322;28;20044;-75
2022/04/15 07:15:30;;;;;;;13.07;11.30;;;8.30;99.90;;;;;;5007523;28;20030;-75
2022/04/15 07:17:56;;;;;;;13.65;11.70;;;8.30;99.90;;;;;;5004752;28;20044;-75
2022/04/15 07:20:22;;;;;;;13.05;11.75;;;8.30;99.90;;;;;;5005335;28;20038;-76
2022/04/15 07:22:59;;;;;;;13.30;11.70;;;8.30;99.90;;;;;;5004401;28;20037;-78
2022/04/15 07:25:25;;;;;;;13.20;11.88;;;8.30;99.90;;;;;;5019031;28;20125;-78
2022/04/15 07:27:53;;;;;;;13.90;12.38;;;8.30;99.90;;;;;;5013199;28;20069;-76
2022/04/15 07:30:19;;;;;;;13.30;11.90;;;8.30;99.90;;;;;;5011095;28;20037;-76
2022/04/15 07:32:44;;;;;;;14.38;12.77;;;8.30;99.90;;;;;;5017840;28;20053;-77
2022/04/15 07:35:10;;;;;;;14.05;12.35;;;8.30;99.90;;;;;;5008897;28;20060;-78
2022/04/15 07:37:36;;;;;;;13.60;11.90;;;8.30;99.90;;;;;;5009602;28;20048;-75
2022/04/15 07:40:02;;;;;;;13.70;11.75;;;8.30;99.90;;;;;;5014744;28;20038;-75
2022/04/15 07:42:28;;;;;;;12.95;11.60;;;8.30;99.90;;;;;;5009315;28;20440;-76
2022/04/15 07:44:54;;;;;;;19.67;11.20;;;8.40;99.90;;;;;;5011216;28;20053;-76
2022/04/15 07:47:19;;;;;;;13.68;11.20;;;8.40;99.90;;;;;;5021492;28;20041;-79
2022/04/15 07:49:45;;;;;;;12.82;11.52;;;8.40;99.90;;;;;;5023700;28;20045;-78
2022/04/15 07:52:14;;;;;;;13.40;12.00;;;8.50;99.90;;;;;;5026472;28;20083;-78
2022/04/15 07:54:39;;;;;;;15.40;12.85;;;8.50;99.90;;;;;;5025474;28;20058;-76
2022/04/15 07:57:05;;;;;;;15.95;12.77;;;8.50;99.90;;;;;;5032822;28;20120;-74
2022/04/15 07:59:31;;;;;;;16.08;12.93;;;8.50;99.90;;;;;;5031045;28;20042;-75
2022/04/15 08:01:58;;;;;;;13.80;12.10;;;8.50;99.90;;;;;;5030648;28;20048;-74
2022/04/15 08:04:23;;;;;;;14.45;12.23;;;8.60;99.90;;;;;;5031235;28;20049;-74
2022/04/15 08:06:50;;;;;;;15.15;12.10;;;8.50;99.90;;;;;;5031642;28;20164;-80
2022/04/15 08:09:16;;;;;;;15.77;12.53;;;8.60;99.90;;;;;;5029073;28;20044;-74
2022/04/15 08:11:41;;;;;;;15.75;12.57;;;8.60;99.90;;;;;;5029537;28;20300;-80
2022/04/15 08:14:07;;;;;;;16.52;13.43;;;8.60;99.90;;;;;;5032765;28;20041;-77
2022/04/15 08:16:32;;;;;;;17.17;13.88;;;8.70;99.90;;;;;;5033295;28;20499;-75
2022/04/15 08:18:58;;;;;;;16.95;14.27;;;8.70;99.90;;;;;;5029927;28;20396;-86
2022/04/15 08:21:24;;;;;;;17.10;14.82;;;8.70;99.90;;;;;;5014128;28;20042;-75
2022/04/15 08:23:50;;;;;;;20.85;15.45;;;8.70;99.90;;;;;;5000739;28;20057;-75
2022/04/15 08:26:15;;;;;;;18.42;15.65;;;8.70;99.90;;;;;;5031803;28;20033;-74
2022/04/15 08:28:41;;;;;;;17.17;14.57;;;8.80;99.90;;;;;;5006890;28;20514;-72
2022/04/15 08:31:08;;;;;;;20.55;14.70;;;8.80;99.90;;;;;;5029444;28;20179;-75
2022/04/15 08:33:35;;;;;;;19.55;14.68;;;8.90;99.90;;;;;;5033395;28;20123;-77
2022/04/15 08:36:00;;;;;;;17.70;14.50;;;8.90;99.90;;;;;;5032603;28;20041;-75
2022/04/15 08:38:26;;;;;;;20.55;14.73;;;8.90;99.90;;;;;;5031218;28;20061;-77
2022/04/15 08:40:56;;;;;;;19.10;14.25;;;9.00;99.90;;;;;;5012677;28;20053;-75
2022/04/15 08:43:24;;;;;;;19.35;15.20;;;9.00;99.90;;;;;;5042907;28;20131;-74
2022/04/15 08:45:50;;;;;;;17.20;14.10;;;9.00;99.90;;;;;;5048252;28;20045;-76
2022/04/15 08:48:16;;;;;;;15.00;13.23;;;9.10;99.90;;;;;;5016733;28;20042;-76
2022/04/15 08:50:44;;;;;;;17.05;14.23;;;9.10;99.90;;;;;;5030211;28;20081;-76
2022/04/15 08:53:10;;;;;;;21.48;15.57;;;9.20;99.90;;;;;;5010539;28;20215;-75
2022/04/15 08:55:36;;;;;;;19.48;14.68;;;9.20;99.90;;;;;;5009854;28;20029;-77
2022/04/15 08:58:02;;;;;;;18.90;14.52;;;9.30;99.90;;;;;;5028117;28;20443;-76
2022/04/15 09:00:29;;;;;;;17.30;14.20;;;9.30;99.90;;;;;;5030537;28;20140;-76
2022/04/15 09:02:55;;;;;;;18.05;15.32;;;9.30;99.90;;;;;;5010832;28;20049;-75
2022/04/15 09:05:23;;;;;;;20.58;14.32;;;9.30;99.90;;;;;;5033721;28;20037;-77
2022/04/15 09:07:49;;;;;;;18.98;14.20;;;9.30;99.90;;;;;;5048023;28;20508;-75
2022/04/15 09:10:18;;;;;;;19.00;13.93;;;9.30;99.90;;;;;;5026982;28;20033;-75
2022/04/15 09:12:46;;;;;;;17.38;14.43;;;9.30;99.90;;;;;;5029105;28;20048;-76
2022/04/15 09:15:13;;;;;;;16.55;14.10;;;9.30;99.90;;;;;;5028769;28;20055;-75
2022/04/15 09:17:40;;;;;;;18.95;14.55;;;9.30;99.90;;;;;;5012484;28;20969;-75
2022/04/15 09:20:07;;;;;;;;;;;9.40;99.90;;;;;;4996974;28;20111;-75
2022/04/15 09:22:33;;;;;;;22.25;16.50;;;9.30;99.90;;;;;;5023822;28;19979;-74
2022/04/15 09:24:59;;;;;;;17.60;15.70;;;9.40;99.90;;;;;;5035757;28;20045;-76
2022/04/15 09:27:26;;;;;;;18.13;14.93;;;9.50;99.90;;;;;;5036392;28;20045;-74
2022/04/15 09:29:54;;;;;;;17.83;14.30;;;9.50;99.90;;;;;;5035726;28;20049;-73
2022/04/15 09:32:22;;;;;;;18.50;13.32;;;9.60;99.90;;;;;;5025183;28;20056;-78
2022/04/15 09:34:59;;;;;;;19.92;12.85;;;9.60;99.90;;;;;;5006253;28;20041;-79
2022/04/15 09:37:30;;;;;;;17.00;13.70;;;9.60;99.90;;;;;;5004597;28;20060;-76
2022/04/15 09:40:14;;;;;;;16.80;12.50;;;9.70;99.90;;;;;;5026041;28;20041;-76
2022/04/15 09:42:45;;;;;;;14.77;10.98;;;9.60;99.90;;;;;;5009866;28;20061;-75
2022/04/15 09:45:19;;;;;;;16.17;11.77;;;9.80;99.90;;;;;;5029270;28;20056;-79
2022/04/15 09:48:05;;;;;;;14.13;10.20;;;9.80;99.90;;;;;;5028796;28;20049;-80
2022/04/15 09:50:34;;;;;;;13.80;10.27;;;9.80;99.90;;;;;;5011405;28;20489;-79
2022/04/15 09:53:09;;;;;;;15.23;10.95;;;9.80;99.90;;;;;;5031599;28;20037;-79
2022/04/15 09:55:36;;;;;;;12.43;10.48;;;9.90;99.90;;;;;;5010330;28;20053;-78
2022/04/15 09:58:11;;;;;;;15.95;10.90;;;9.90;99.90;;;;;;5013431;28;20037;-85
2022/04/15 10:00:38;;;;;;;15.23;10.80;;;10.00;99.90;;;;;;5024534;28;20037;-78
2022/04/15 10:03:11;;;;;;;13.60;10.23;;;10.00;99.90;;;;;;5010271;28;20080;-78
2022/04/15 10:05:38;;;;;;;10.55;9.10;;;10.00;99.90;;;;;;5028835;28;20045;-78
2022/04/15 10:08:05;;;;;;;13.40;9.20;;;10.10;99.90;;;;;;5012153;28;20051;-79
2022/04/15 10:10:31;;;;;;;9.82;8.10;;;10.10;99.90;;;;;;5041709;28;20040;-78
2022/04/15 10:13:00;;;;;;;14.00;9.18;;;10.10;99.90;;;;;;5011053;28;20419;-78
2022/04/15 10:15:29;;;;;;;10.52;7.90;;;10.20;99.90;;;;;;5028823;28;20083;-75
2022/04/15 10:17:56;;;;;;;11.48;8.00;;;10.20;99.90;;;;;;5009537;28;20089;-78
2022/04/15 10:20:22;;;;;;;13.00;7.68;;;10.20;99.90;;;;;;5011538;28;20075;-77
2022/04/15 10:22:49;;;;;;;9.18;8.07;;;10.30;99.90;;;;;;5024834;28;20049;-76
2022/04/15 10:25:14;;;;;;;10.75;8.25;;;10.30;99.90;;;;;;5028201;28;20098;-77
2022/04/15 10:27:40;;;;;;;11.32;8.40;;;10.30;99.90;;;;;;5034609;28;20077;-77
2022/04/15 10:30:21;;;;;;;11.50;8.13;;;10.30;99.90;;;;;;5026283;28;20075;-76
2022/04/15 10:32:52;;;;;;;10.70;8.50;;;10.40;99.90;;;;;;5020701;28;20084;-78
2022/04/15 10:35:28;;;;;;;10.57;8.20;;;10.50;99.90;;;;;;5027635;28;20053;-78
2022/04/15 10:38:09;;;;;;;11.85;8.50;;;10.50;99.90;;;;;;5008231;28;20440;-78
2022/04/15 10:40:36;;;;;;;12.32;8.70;;;10.60;99.90;;;;;;5010748;28;20042;-75
2022/04/15 10:43:04;;;;;;;13.05;9.07;;;10.50;99.90;;;;;;5027263;28;20037;-76
2022/04/15 10:45:34;;;;;;;13.43;9.70;;;10.60;99.90;;;;;;5026077;28;20042;-74
2022/04/15 10:48:01;;;;;;;11.73;8.45;;;10.60;99.90;;;;;;5008810;28;20057;-77
2022/04/15 10:50:29;;;;;;;10.77;8.50;;;10.70;99.90;;;;;;5010535;28;20075;-83
2022/04/15 10:53:27;;;;;;;11.40;8.80;;;10.60;99.90;;;;;;5008913;28;20041;-80
2022/04/15 10:55:53;;;;;;;16.00;9.05;;;10.70;99.90;;;;;;5025495;28;20053;-78
2022/04/15 10:58:20;;;;;;;12.18;8.40;;;10.80;99.90;;;;;;5026490;28;20763;-81
2022/04/15 11:01:19;;;;;;;12.13;8.57;;;10.90;99.90;;;;;;5014595;28;20484;-80
2022/04/15 11:04:03;;;;;;;11.02;8.43;;;11.00;99.90;;;;;;5014615;28;20125;-80
2022/04/15 11:06:28;;;;;;;11.40;8.73;;;11.00;99.90;;;;;;5019578;28;20053;-80
2022/04/15 11:08:58;;;;;;;13.30;8.95;;;11.00;99.90;;;;;;5038141;28;20048;-78
2022/04/15 11:11:35;;;;;;;13.07;8.77;;;11.00;99.90;;;;;;5029865;28;20096;-78
2022/04/15 11:14:03;;;;;;;12.30;9.40;;;11.00;99.90;;;;;;5029575;28;20464;-75
2022/04/15 11:16:39;;;;;;;14.95;9.38;;;11.00;99.90;;;;;;5031855;28;20045;-74
2022/04/15 11:19:05;;;;;;;13.05;8.50;;;11.10;99.90;;;;;;5028684;28;20054;-74
2022/04/15 11:21:40;;;;;;;10.47;8.30;;;11.10;99.90;;;;;;5015684;28;20391;-78
2022/04/15 11:24:13;;;;;;;11.52;7.90;;;11.10;99.90;;;;;;5012727;28;20375;-78
2022/04/15 11:26:43;;;;;;;11.02;8.57;;;11.10;99.90;;;;;;5004682;28;20034;-77
2022/04/15 11:29:11;;;;;;;13.55;9.15;;;11.10;99.90;;;;;;5030864;28;20415;-78
2022/04/15 11:31:42;;;;;;;11.38;8.50;;;11.10;99.90;;;;;;5031019;28;20045;-78
2022/04/15 11:34:16;;;;;;;12.10;8.52;;;11.10;99.90;;;;;;5012462;28;20063;-78
2022/04/15 11:36:49;;;;;;;12.30;8.63;;;11.10;99.90;;;;;;5011830;28;20054;-76
2022/04/15 11:39:17;;;;;;;11.52;7.72;;;11.20;99.90;;;;;;5014935;28;20161;-75
2022/04/15 11:41:45;;;;;;;10.07;8.18;;;11.20;99.90;;;;;;5018515;28;20103;-78
2022/04/15 11:44:11;;;;;;;12.40;8.70;;;11.20;99.90;;;;;;5011529;28;20410;-77
2022/04/15 11:46:38;;;;;;;10.90;7.97;;;11.20;99.90;;;;;;5012033;28;20145;-76
2022/04/15 11:49:22;;;;;;;13.52;8.15;;;11.20;99.90;;;;;;5032988;28;20140;-76
2022/04/15 11:51:53;;;;;;;11.30;9.02;;;11.20;99.90;;;;;;5037395;28;20041;-77
2022/04/15 11:54:22;;;;;;;13.57;8.90;;;11.20;99.90;;;;;;5029745;28;20053;-76
2022/04/15 11:56:54;;;;;;;11.40;8.30;;;11.20;99.90;;;;;;5025737;28;20049;-78
2022/04/15 11:59:20;;;;;;;13.80;9.05;;;11.30;99.90;;;;;;5041629;28;20052;-77
2022/04/15 12:01:46;;;;;;;12.02;9.15;;;11.20;99.90;;;;;;5011206;28;20046;-82
2022/04/15 12:04:12;;;;;;;11.82;8.77;;;11.20;99.90;;;;;;5027422;28;20060;-77
2022/04/15 12:06:41;;;;;;;13.98;9.10;;;11.20;99.90;;;;;;5039945;28;20055;-78
2022/04/15 12:09:12;;;;;;;12.18;9.48;;;11.30;99.90;;;;;;5039163;28;20048;-78
2022/04/15 12:11:38;;;;;;;12.77;9.13;;;11.30;99.90;;;;;;5028989;28;20520;-78
2022/04/15 12:14:06;;;;;;;13.10;9.43;;;11.30;99.90;;;;;;5030382;28;20053;-78
2022/04/15 12:16:34;;;;;;;12.15;8.73;;;11.30;99.90;;;;;;5029383;28;20034;-78
2022/04/15 12:19:00;;;;;;;15.30;9.32;;;11.30;99.90;;;;;;5027538;28;20045;-78
2022/04/15 12:21:28;;;;;;;13.82;9.68;;;11.40;99.90;;;;;;5012866;28;20054;-78
2022/04/15 12:23:59;;;;;;;13.95;9.57;;;11.40;99.90;;;;;;5029299;28;20054;-78
2022/04/15 12:26:25;;;;;;;11.38;9.70;;;11.40;99.90;;;;;;5012540;28;20409;-78
2022/04/15 12:31:34;;;;;;;13.60;10.70;;;11.30;99.90;;;;;;5030468;28;20132;-78
2022/04/15 12:34:01;;;;;;;14.68;10.32;;;11.30;99.90;;;;;;5012077;28;20179;-78
2022/04/15 12:36:40;;;;;;;12.57;10.77;;;11.20;99.90;;;;;;5029447;28;20045;-78
2022/04/15 12:39:07;;;;;;;13.70;10.18;;;11.20;99.90;;;;;;5028586;28;20046;-78
2022/04/15 12:41:48;;;;;;;14.45;10.90;;;11.20;99.90;;;;;;5029767;28;20148;-78